Fallon, NV

9:29 PM PST on December 25, 2014 (GMT -0800)
Hwy. 50 | Change Station
CLOSE
Current Station
Personal Weather Station
Location: Fallon, NV
Elevation: 4002 ft
Nearby Weather Stations

Elev 4002 ft 39.49 °N, 118.87 °W | Updated 1 second ago

Clear
Clear
25.9 °F
Feels Like 26 °F
N
1.0
Wind Variable Wind from NW
Gusts 3.0 mph

Today
High -- | Low -- °F
--% Chance of Precip.
Yesterday
High -- | Low -- °F
Precip. -- in
7:14 AM 4:37 PM
Waxing Crescent, 22% visible
Pressure 29.99 in
Visibility 10.0 miles
Clouds Clear
Windchill 26 °F
Dew Point 17 °F
Humidity 69%
Rainfall 0.00 in
Snow Depth Not available.
UV 0 out of 12
Pollen .30 out of 12
Air Quality Not available.
Flu Activity Not available.
METAR KNFL 260456Z AUTO 34007KT 10SM CLR M02/M08 A3009 RMK AO2 SLP155 T10221083 $

More Conditions Fewer Conditions

Pressure 29.99 in
Visibility 10.0 miles
Clouds Clear
Windchill 26 °F
Dew Point 17 °F
Humidity 69%
Rainfall 0.00 in
Snow Depth Not available.
UV 0 out of 12
Pollen .30 out of 12
Air Quality Not available.
Flu Activity Not available.
METAR KNFL 260456Z AUTO 34007KT 10SM CLR M02/M08 A3009 RMK AO2 SLP155 T10221083 $

More Conditions Fewer Conditions

10-Day Weather Forecast

Almanac

Astronomy

Dec. 25, 2014 Rise Set
Actual Time
Civil Twilight
Nautical Twilight
Astronomical Twilight
Moon
Length of Visible Light
Length of Day
Tomorrow will be .
, % of the Moon is Illuminated

Today's Extremes

State Highs State Lows

Community

WunderPhotos

Upload Photos

1,780,548 photos uploaded!

WunderBlogs® & News

Nearby

Air Quality

  Air Quality AQ Index Pollutant
Not available.

Snow Depth

Station Depth Elevation

Earthquake Activity

City Distance Mag. Time & Date
Minimum magnitude displayed is 2.5.

Coastal Water Temperatures

Place Temperature

Nearby Weather Stations